Time;durP1;ratioP1;P1;durP2;ratioP2;P2;SDS_P1;SDS_P2;PMS_P1;PMS_P2;Temp;Humidity;BMP_temperature;BMP_pressure;BME280_temperature;BME280_humidity;BME280_pressure;Samples;Min_cycle;Max_cycle;Signal;HPM_P1;HPM_P2
2023/12/03 00:00:07;;;;;;;8.68;2.00;;;-0.80;99.90;;;;;;6185598;23;20012;-72
2023/12/03 00:02:33;;;;;;;2.35;1.27;;;-0.80;99.90;;;;;;6184267;23;20019;-72
2023/12/03 00:04:59;;;;;;;2.53;1.02;;;-0.80;99.90;;;;;;6184895;23;20059;-72
2023/12/03 00:07:25;;;;;;;1.65;1.33;;;-0.80;99.90;;;;;;6184368;23;20032;-72
2023/12/03 00:09:51;;;;;;;4.13;1.98;;;-0.80;99.90;;;;;;6212679;23;20008;-72
2023/12/03 00:12:16;;;;;;;2.33;1.25;;;-0.80;99.90;;;;;;6185652;23;20486;-72
2023/12/03 00:14:42;;;;;;;3.25;3.10;;;-0.80;99.90;;;;;;6184972;23;20013;-73
2023/12/03 00:17:08;;;;;;;0.28;0.28;;;-0.80;99.90;;;;;;6185756;23;20035;-73
2023/12/03 00:19:33;;;;;;;0.40;0.40;;;-0.80;99.90;;;;;;6184882;23;20062;-73
2023/12/03 00:21:59;;;;;;;1.02;0.93;;;-0.80;99.90;;;;;;6185689;23;20051;-73
2023/12/03 00:24:25;;;;;;;0.45;0.45;;;-0.80;99.90;;;;;;6156720;23;20017;-73
2023/12/03 00:26:51;;;;;;;1.23;1.10;;;-0.80;99.90;;;;;;6183688;23;20232;-72
2023/12/03 00:29:16;;;;;;;1.67;1.20;;;-0.80;99.90;;;;;;6185450;23;20013;-73
2023/12/03 00:31:42;;;;;;;4.53;2.40;;;-0.90;99.90;;;;;;6186466;23;20020;-72
2023/12/03 00:34:08;;;;;;;1.20;0.43;;;-0.90;99.90;;;;;;6187516;23;20492;-71
2023/12/03 00:36:33;;;;;;;1.10;1.10;;;-0.90;99.90;;;;;;6213444;23;20024;-72
2023/12/03 00:38:59;;;;;;;1.25;0.98;;;-0.90;99.90;;;;;;6186401;23;20055;-72
2023/12/03 00:41:24;;;;;;;4.13;1.08;;;-0.90;99.90;;;;;;6187546;23;20012;-71
2023/12/03 00:43:50;;;;;;;4.65;3.55;;;-0.80;99.90;;;;;;6188487;23;20064;-71
2023/12/03 00:46:22;;;;;;;2.00;1.90;;;-0.90;99.90;;;;;;6187666;23;20104;-71
2023/12/03 00:48:48;;;;;;;0.38;0.38;;;-0.90;99.90;;;;;;6188067;23;20024;-71
2023/12/03 00:51:14;;;;;;;1.77;1.65;;;-0.80;99.90;;;;;;6214560;23;20328;-71
2023/12/03 00:53:44;;;;;;;5.95;1.75;;;-0.80;99.90;;;;;;6187001;23;20016;-71
2023/12/03 00:56:10;;;;;;;0.57;0.57;;;-0.70;99.90;;;;;;6213688;23;20019;-71
2023/12/03 00:58:37;;;;;;;1.20;1.10;;;-0.60;99.90;;;;;;6184489;23;20555;-71
2023/12/03 01:01:04;;;;;;;0.57;0.57;;;-0.50;99.90;;;;;;6186371;23;20011;-71
2023/12/03 01:03:29;;;;;;;0.40;0.40;;;-0.50;99.90;;;;;;6185693;23;20020;-71
2023/12/03 01:05:55;;;;;;;1.00;1.00;;;-0.50;99.90;;;;;;6157770;23;20431;-72
2023/12/03 01:08:20;;;;;;;3.88;1.45;;;-0.50;99.90;;;;;;6181629;23;20463;-72
2023/12/03 01:10:46;;;;;;;1.98;1.75;;;-0.50;99.90;;;;;;6211945;23;20528;-72
2023/12/03 01:13:11;;;;;;;2.58;0.50;;;-0.50;99.90;;;;;;6212448;23;20043;-71
2023/12/03 01:15:38;;;;;;;0.20;0.20;;;-0.50;99.90;;;;;;6186321;23;20491;-71
2023/12/03 01:18:03;;;;;;;1.40;1.27;;;-0.60;99.90;;;;;;6212420;23;20012;-71
2023/12/03 01:20:29;;;;;;;1.40;1.30;;;-0.60;99.90;;;;;;6186629;23;20016;-71
2023/12/03 01:22:55;;;;;;;0.77;0.77;;;-0.60;99.90;;;;;;6160431;23;20018;-70
2023/12/03 01:25:20;;;;;;;1.38;0.93;;;-0.60;99.90;;;;;;6161108;23;20082;-70
2023/12/03 01:27:46;;;;;;;2.30;1.25;;;-0.60;99.90;;;;;;6213384;23;20005;-70
2023/12/03 01:30:12;;;;;;;2.40;0.88;;;-0.50;99.90;;;;;;6185688;23;20035;-70
2023/12/03 01:32:37;;;;;;;0.45;0.40;;;-0.50;99.90;;;;;;6184724;23;20442;-70
2023/12/03 01:35:04;;;;;;;1.58;1.42;;;-0.40;99.90;;;;;;6211807;23;20012;-69
2023/12/03 01:37:30;;;;;;;2.92;1.23;;;-0.40;99.90;;;;;;6214112;23;20015;-70
2023/12/03 01:39:55;;;;;;;0.60;0.55;;;-0.40;99.90;;;;;;6213081;23;20016;-70
2023/12/03 01:42:24;;;;;;;7.22;1.50;;;-0.40;99.90;;;;;;6186987;23;20017;-71
2023/12/03 01:44:50;;;;;;;1.52;1.42;;;-0.50;99.90;;;;;;6185216;23;20017;-70
2023/12/03 01:47:17;;;;;;;2.70;2.47;;;-0.50;99.90;;;;;;6185953;23;20091;-70
2023/12/03 01:49:44;;;;;;;0.73;0.73;;;-0.50;99.90;;;;;;6184328;23;20009;-69
2023/12/03 01:52:11;;;;;;;1.70;1.10;;;-0.50;99.90;;;;;;6186172;23;20020;-69
2023/12/03 01:54:39;;;;;;;1.35;1.25;;;-0.30;99.90;;;;;;6184772;23;20062;-69
2023/12/03 01:57:04;;;;;;;3.50;1.48;;;-0.30;99.90;;;;;;6185707;23;20115;-68
2023/12/03 01:59:31;;;;;;;1.50;1.40;;;-0.30;99.90;;;;;;6212557;23;20017;-68
2023/12/03 02:01:57;;;;;;;3.30;1.75;;;-0.30;99.90;;;;;;6185249;23;20027;-68
2023/12/03 02:04:22;;;;;;;10.10;1.45;;;-0.30;99.90;;;;;;6182948;23;20020;-68
2023/12/03 02:06:48;;;;;;;1.27;1.20;;;-0.20;99.90;;;;;;6184569;23;20012;-68
2023/12/03 02:09:16;;;;;;;3.72;1.08;;;-0.20;99.90;;;;;;6211257;23;20013;-68
2023/12/03 02:11:42;;;;;;;1.98;1.83;;;-0.20;99.90;;;;;;6184943;23;20019;-68
2023/12/03 02:14:09;;;;;;;11.88;2.38;;;-0.10;99.90;;;;;;6211001;23;20464;-68
2023/12/03 02:16:35;;;;;;;5.18;2.70;;;-0.10;99.90;;;;;;6184649;23;20020;-68
2023/12/03 02:19:02;;;;;;;1.60;1.45;;;0.00;99.90;;;;;;6183957;23;20051;-67
2023/12/03 02:21:28;;;;;;;2.17;1.05;;;0.00;99.90;;;;;;6183725;23;20012;-68
2023/12/03 02:23:54;;;;;;;0.50;0.50;;;0.10;99.90;;;;;;6183514;23;20387;-69
2023/12/03 02:26:19;;;;;;;4.28;2.17;;;0.10;99.90;;;;;;6212743;23;20023;-69
2023/12/03 02:28:45;;;;;;;3.10;1.70;;;0.20;99.90;;;;;;6210625;23;20008;-70
2023/12/03 02:31:10;;;;;;;2.40;2.00;;;0.20;99.90;;;;;;6186026;23;20344;-70
2023/12/03 02:33:36;;;;;;;0.85;0.85;;;0.30;99.90;;;;;;6183984;23;20020;-68
2023/12/03 02:36:02;;;;;;;4.05;2.47;;;0.30;99.90;;;;;;6184887;23;20024;-69
2023/12/03 02:38:27;;;;;;;3.60;2.63;;;0.40;99.90;;;;;;6182665;23;20083;-68
2023/12/03 02:40:56;;;;;;;7.18;2.45;;;0.40;99.90;;;;;;6185599;23;20346;-69
2023/12/03 02:43:22;;;;;;;5.95;1.25;;;0.50;99.90;;;;;;6182970;23;20099;-70
2023/12/03 02:45:47;;;;;;;3.65;1.85;;;0.50;99.90;;;;;;6209287;23;20390;-69
2023/12/03 02:48:13;;;;;;;2.00;1.63;;;0.50;99.90;;;;;;6182328;23;20459;-68
2023/12/03 02:50:38;;;;;;;3.80;2.63;;;0.50;99.90;;;;;;6184121;23;20044;-68
2023/12/03 02:53:04;;;;;;;2.53;1.35;;;0.60;99.90;;;;;;6183886;23;20396;-68
2023/12/03 02:55:30;;;;;;;1.98;1.10;;;0.60;99.90;;;;;;6209269;23;20016;-68
2023/12/03 02:57:55;;;;;;;2.63;2.08;;;0.70;99.90;;;;;;6183333;23;20107;-69
2023/12/03 03:00:21;;;;;;;2.75;2.55;;;0.60;99.90;;;;;;6183632;23;20144;-68
2023/12/03 03:02:46;;;;;;;1.30;1.05;;;0.60;99.90;;;;;;6211986;23;20013;-68
2023/12/03 03:05:12;;;;;;;3.70;2.70;;;0.70;99.90;;;;;;6182967;23;20067;-68
2023/12/03 03:07:37;;;;;;;1.67;1.48;;;0.70;99.90;;;;;;6211957;23;20017;-67
2023/12/03 03:10:03;;;;;;;2.45;2.30;;;0.70;99.90;;;;;;6182888;23;20016;-68
2023/12/03 03:12:29;;;;;;;7.25;1.52;;;0.70;99.90;;;;;;6184985;23;20017;-69
2023/12/03 03:14:54;;;;;;;0.43;0.43;;;0.70;99.90;;;;;;6158030;23;20056;-68
2023/12/03 03:17:20;;;;;;;2.03;1.45;;;0.70;99.90;;;;;;6185063;23;20024;-68
2023/12/03 03:19:45;;;;;;;3.60;1.63;;;0.70;99.90;;;;;;6182792;23;20012;-69
2023/12/03 03:22:14;;;;;;;1.95;1.85;;;0.70;99.90;;;;;;6184508;23;20023;-70
2023/12/03 03:24:41;;;;;;;6.72;1.23;;;0.70;99.90;;;;;;6182781;23;20083;-70
2023/12/03 03:27:06;;;;;;;3.92;1.55;;;0.70;99.90;;;;;;6212126;23;20017;-69
2023/12/03 03:29:33;;;;;;;1.95;1.65;;;0.70;99.90;;;;;;6185085;23;20012;-70
2023/12/03 03:31:59;;;;;;;3.25;2.35;;;0.70;99.90;;;;;;6212893;23;20087;-69
2023/12/03 03:34:25;;;;;;;1.38;0.88;;;0.70;99.90;;;;;;6184171;23;20368;-69
2023/12/03 03:36:50;;;;;;;1.65;1.52;;;0.70;99.90;;;;;;6212967;23;20013;-69
2023/12/03 03:39:16;;;;;;;2.70;1.83;;;0.70;99.90;;;;;;6158984;23;20216;-70
2023/12/03 03:41:41;;;;;;;3.90;1.38;;;0.70;99.90;;;;;;6186268;23;20016;-69
2023/12/03 03:44:07;;;;;;;7.55;2.28;;;0.70;99.90;;;;;;6210692;23;20016;-70
2023/12/03 03:46:32;;;;;;;2.08;1.77;;;0.70;99.90;;;;;;6185096;23;20013;-70
2023/12/03 03:48:58;;;;;;;5.00;1.90;;;0.70;99.90;;;;;;6183058;23;20017;-70
2023/12/03 03:51:23;;;;;;;3.35;1.73;;;0.70;99.90;;;;;;6185529;23;20079;-70
2023/12/03 03:53:50;;;;;;;3.25;1.15;;;0.70;99.90;;;;;;6181986;23;20058;-69
2023/12/03 03:56:16;;;;;;;1.10;1.02;;;0.80;99.90;;;;;;6185208;23;20013;-70
2023/12/03 03:58:42;;;;;;;2.47;0.88;;;0.80;99.90;;;;;;6183493;23;20017;-69
2023/12/03 04:01:08;;;;;;;1.42;1.13;;;0.80;99.90;;;;;;6211329;23;20389;-68
2023/12/03 04:03:34;;;;;;;1.40;0.60;;;0.80;99.90;;;;;;6180668;23;20017;-69
2023/12/03 04:06:00;;;;;;;1.42;1.33;;;0.80;99.90;;;;;;6184828;23;20023;-70
2023/12/03 04:08:26;;;;;;;0.70;0.70;;;0.80;99.90;;;;;;6184477;23;20008;-70
2023/12/03 04:10:51;;;;;;;4.65;1.65;;;0.80;99.90;;;;;;6185263;23;20325;-70
2023/12/03 04:13:17;;;;;;;5.18;1.95;;;0.80;99.90;;;;;;6210832;23;20020;-70
2023/12/03 04:15:43;;;;;;;2.25;1.17;;;0.80;99.90;;;;;;6185097;23;20516;-70
2023/12/03 04:18:08;;;;;;;1.55;0.93;;;0.90;99.90;;;;;;6183015;23;20101;-70
2023/12/03 04:20:34;;;;;;;0.80;0.75;;;0.80;99.90;;;;;;6185630;23;20403;-70
2023/12/03 04:22:59;;;;;;;0.60;0.57;;;0.90;99.90;;;;;;6183510;23;20017;-70
2023/12/03 04:25:25;;;;;;;0.88;0.60;;;0.90;99.90;;;;;;6183845;23;20016;-70
2023/12/03 04:27:50;;;;;;;2.83;1.27;;;0.90;99.90;;;;;;6182318;23;20009;-70
2023/12/03 04:30:17;;;;;;;2.40;0.95;;;0.90;99.90;;;;;;6185042;23;20027;-71
2023/12/03 04:32:43;;;;;;;0.98;0.98;;;0.90;99.90;;;;;;6183356;23;20092;-71
2023/12/03 04:35:08;;;;;;;7.57;1.65;;;0.90;99.90;;;;;;6210374;23;20332;-70
2023/12/03 04:37:34;;;;;;;1.38;1.05;;;0.90;99.90;;;;;;6183398;23;20447;-72
2023/12/03 04:40:00;;;;;;;2.28;1.38;;;0.90;99.90;;;;;;6209795;23;20044;-70
2023/12/03 04:42:25;;;;;;;1.98;1.15;;;1.00;99.90;;;;;;6182626;23;20016;-71
2023/12/03 04:44:51;;;;;;;2.63;1.48;;;1.00;99.90;;;;;;6183872;23;20139;-70
2023/12/03 04:47:16;;;;;;;4.13;0.93;;;1.00;99.90;;;;;;6184322;23;20016;-70
2023/12/03 04:49:42;;;;;;;1.75;1.13;;;1.00;99.90;;;;;;6185270;23;20016;-70
2023/12/03 04:52:07;;;;;;;2.30;2.20;;;1.10;99.90;;;;;;6185198;23;20387;-71
2023/12/03 04:54:33;;;;;;;1.90;1.13;;;1.00;99.90;;;;;;6184269;23;20051;-70
2023/12/03 04:56:58;;;;;;;1.20;0.77;;;1.10;99.90;;;;;;6183936;23;20012;-71
2023/12/03 04:59:24;;;;;;;6.20;1.05;;;1.10;99.90;;;;;;6183922;23;20016;-71
2023/12/03 05:01:49;;;;;;;2.85;1.77;;;1.10;99.90;;;;;;6158118;23;20470;-70
2023/12/03 05:04:15;;;;;;;1.02;1.02;;;1.10;99.90;;;;;;6210708;23;20008;-72
2023/12/03 05:06:40;;;;;;;1.13;1.02;;;1.10;99.90;;;;;;6184731;23;20896;-71
2023/12/03 05:09:06;;;;;;;1.00;0.70;;;1.10;99.90;;;;;;6184286;23;20012;-71
2023/12/03 05:11:32;;;;;;;3.25;1.00;;;1.20;99.90;;;;;;6182650;23;20024;-70
2023/12/03 05:13:57;;;;;;;5.47;0.85;;;1.20;99.90;;;;;;6183784;23;20020;-70
2023/12/03 05:16:23;;;;;;;0.38;0.25;;;1.10;99.90;;;;;;6183945;23;20019;-71
2023/12/03 05:18:48;;;;;;;3.67;1.20;;;1.20;99.90;;;;;;6184994;23;20023;-70
2023/12/03 05:21:14;;;;;;;2.20;1.30;;;1.20;99.90;;;;;;6184776;23;20028;-69
2023/12/03 05:23:39;;;;;;;0.75;0.75;;;1.20;99.90;;;;;;6184125;23;20024;-70
2023/12/03 05:26:05;;;;;;;2.58;1.02;;;1.20;99.90;;;;;;6185388;23;20470;-69
2023/12/03 05:28:31;;;;;;;1.92;1.45;;;1.20;99.90;;;;;;6208438;23;20337;-69
2023/12/03 05:30:56;;;;;;;1.02;0.98;;;1.20;99.90;;;;;;6211554;23;20008;-70
2023/12/03 05:33:22;;;;;;;1.98;1.67;;;1.30;99.90;;;;;;6183986;23;20022;-69
2023/12/03 05:35:47;;;;;;;1.58;1.02;;;1.30;99.90;;;;;;6210500;23;20016;-69
2023/12/03 05:38:13;;;;;;;6.40;1.73;;;1.30;99.90;;;;;;6182641;23;20782;-69
2023/12/03 05:40:39;;;;;;;2.28;1.65;;;1.20;99.90;;;;;;6210772;23;20012;-69
2023/12/03 05:43:04;;;;;;;0.93;0.90;;;1.30;99.90;;;;;;6182464;23;20020;-69
2023/12/03 05:45:30;;;;;;;9.05;2.42;;;1.20;99.90;;;;;;6184314;23;20016;-70
2023/12/03 05:47:55;;;;;;;1.08;1.05;;;1.30;99.90;;;;;;6209091;23;20123;-70
2023/12/03 05:50:21;;;;;;;0.45;0.45;;;1.30;99.90;;;;;;6183974;23;20298;-70
2023/12/03 05:52:47;;;;;;;2.83;1.70;;;1.30;99.90;;;;;;6183114;23;20016;-70
2023/12/03 05:55:12;;;;;;;0.63;0.63;;;1.30;99.90;;;;;;6183037;23;20387;-70
2023/12/03 05:57:38;;;;;;;9.20;2.00;;;1.30;99.90;;;;;;6182931;23;20013;-70
2023/12/03 06:00:04;;;;;;;1.48;1.05;;;1.30;99.90;;;;;;6210973;23;20332;-70
2023/12/03 06:02:33;;;;;;;5.88;1.52;;;1.40;99.90;;;;;;6209663;23;20083;-70
2023/12/03 06:04:58;;;;;;;0.80;0.80;;;1.30;99.90;;;;;;6208509;23;20009;-70
2023/12/03 06:07:24;;;;;;;1.50;1.02;;;1.30;99.90;;;;;;6182224;23;20008;-70
2023/12/03 06:09:49;;;;;;;5.45;1.42;;;1.30;99.90;;;;;;6183649;23;20017;-70
2023/12/03 06:12:15;;;;;;;0.95;0.77;;;1.30;99.90;;;;;;6210325;23;20440;-70
2023/12/03 06:14:40;;;;;;;2.28;1.48;;;1.30;99.90;;;;;;6183253;23;20091;-70
2023/12/03 06:17:06;;;;;;;1.67;1.58;;;1.40;99.90;;;;;;6183730;23;20436;-70
2023/12/03 06:19:31;;;;;;;1.05;0.82;;;1.40;99.90;;;;;;6184374;23;20016;-70
2023/12/03 06:21:57;;;;;;;3.75;0.88;;;1.40;99.90;;;;;;6181504;23;20074;-71
2023/12/03 06:24:25;;;;;;;0.75;0.43;;;1.40;99.90;;;;;;6181133;23;20021;-71
2023/12/03 06:26:50;;;;;;;2.95;1.05;;;1.30;99.90;;;;;;6208937;23;20012;-71
2023/12/03 06:29:16;;;;;;;0.22;0.22;;;1.40;99.90;;;;;;6184140;23;20012;-70
2023/12/03 06:31:41;;;;;;;4.38;1.23;;;1.40;99.90;;;;;;6183227;23;20012;-71
2023/12/03 06:34:07;;;;;;;2.78;1.00;;;1.40;99.90;;;;;;6182281;23;20723;-71
2023/12/03 06:36:33;;;;;;;0.82;0.82;;;1.50;99.90;;;;;;6184000;23;20022;-71
2023/12/03 06:38:58;;;;;;;1.80;0.98;;;1.50;99.90;;;;;;6210002;23;20024;-71
2023/12/03 06:41:24;;;;;;;0.40;0.40;;;1.50;99.90;;;;;;6184110;23;20017;-71
2023/12/03 06:43:50;;;;;;;1.88;1.27;;;1.50;99.90;;;;;;6181699;23;20082;-71
2023/12/03 06:46:16;;;;;;;3.60;1.10;;;1.50;99.90;;;;;;6183665;23;20013;-72
2023/12/03 06:48:44;;;;;;;1.17;0.90;;;1.50;99.90;;;;;;6182731;23;20024;-71
2023/12/03 06:51:10;;;;;;;1.60;1.05;;;1.50;99.90;;;;;;6184478;23;20384;-71
2023/12/03 06:53:36;;;;;;;1.60;1.35;;;1.50;99.90;;;;;;6182282;23;20012;-71
2023/12/03 06:56:01;;;;;;;1.83;1.38;;;1.50;99.90;;;;;;6210687;23;20087;-70
2023/12/03 06:58:27;;;;;;;2.38;1.33;;;1.50;99.90;;;;;;6182397;23;20013;-71
2023/12/03 07:00:52;;;;;;;5.07;1.48;;;1.50;99.90;;;;;;6186246;23;20032;-70
2023/12/03 07:03:18;;;;;;;4.88;0.95;;;1.50;99.90;;;;;;6211016;23;20088;-70
2023/12/03 07:05:43;;;;;;;1.08;0.90;;;1.60;99.90;;;;;;6185905;23;20020;-69
2023/12/03 07:08:09;;;;;;;1.83;0.75;;;1.60;99.90;;;;;;6212249;23;20012;-71
2023/12/03 07:10:34;;;;;;;1.17;1.08;;;1.60;99.90;;;;;;6184791;23;20008;-68
2023/12/03 07:13:00;;;;;;;1.83;1.40;;;1.60;99.90;;;;;;6211789;23;20051;-70
2023/12/03 07:15:25;;;;;;;7.07;1.77;;;1.60;99.90;;;;;;6185385;23;20095;-70
2023/12/03 07:17:51;;;;;;;0.90;0.90;;;1.60;99.90;;;;;;6184926;23;20451;-70
2023/12/03 07:20:18;;;;;;;6.88;1.85;;;1.60;99.90;;;;;;6185898;23;20020;-70
2023/12/03 07:22:43;;;;;;;2.67;1.88;;;1.70;99.90;;;;;;6184639;23;20461;-70
2023/12/03 07:25:09;;;;;;;1.58;1.33;;;1.60;99.90;;;;;;6212083;23;20088;-70
2023/12/03 07:27:35;;;;;;;3.90;2.00;;;1.60;99.90;;;;;;6182805;23;20040;-71
2023/12/03 07:30:00;;;;;;;1.52;1.25;;;1.60;99.90;;;;;;6185514;23;20015;-71
2023/12/03 07:32:26;;;;;;;0.68;0.68;;;1.60;99.90;;;;;;6211227;23;20063;-71
2023/12/03 07:34:52;;;;;;;3.70;0.93;;;1.70;99.90;;;;;;6184433;23;20440;-70
2023/12/03 07:37:18;;;;;;;0.10;0.10;;;1.70;99.90;;;;;;6211312;23;20020;-70
2023/12/03 07:39:44;;;;;;;0.88;0.88;;;1.60;99.90;;;;;;6185012;23;20347;-71
2023/12/03 07:42:09;;;;;;;1.05;1.00;;;1.70;99.90;;;;;;6184642;23;20452;-70
2023/12/03 07:44:35;;;;;;;2.00;1.33;;;1.60;99.90;;;;;;6183624;23;20016;-69
2023/12/03 07:47:01;;;;;;;2.78;1.13;;;1.70;99.90;;;;;;6211902;23;20440;-70
2023/12/03 07:49:27;;;;;;;0.82;0.60;;;1.70;99.90;;;;;;6211068;23;20008;-71
2023/12/03 07:51:52;;;;;;;2.47;1.08;;;1.70;99.90;;;;;;6212823;23;20479;-71
2023/12/03 07:54:18;;;;;;;1.65;0.85;;;1.70;99.90;;;;;;6208827;23;20328;-70
2023/12/03 07:56:43;;;;;;;1.30;1.08;;;1.70;99.90;;;;;;6185438;23;20127;-71
2023/12/03 07:59:09;;;;;;;1.40;0.98;;;1.70;99.90;;;;;;6183639;23;20012;-71
2023/12/03 08:01:36;;;;;;;3.33;2.10;;;1.70;99.90;;;;;;6186176;23;20016;-70
2023/12/03 08:04:03;;;;;;;2.70;1.50;;;1.70;99.90;;;;;;6183452;23;20012;-71
2023/12/03 08:06:29;;;;;;;4.72;2.17;;;1.70;99.90;;;;;;6185296;23;20023;-71
2023/12/03 08:08:55;;;;;;;2.47;1.88;;;1.70;99.90;;;;;;6184616;23;20008;-71
2023/12/03 08:11:21;;;;;;;1.15;1.02;;;1.70;99.90;;;;;;6213120;23;20016;-71
2023/12/03 08:13:47;;;;;;;1.65;1.45;;;1.60;99.90;;;;;;6183436;23;20018;-71
2023/12/03 08:16:12;;;;;;;1.92;1.48;;;1.60;99.90;;;;;;6184396;23;20020;-71
2023/12/03 08:18:38;;;;;;;2.00;0.90;;;1.60;99.90;;;;;;6211177;23;20359;-71
2023/12/03 08:21:04;;;;;;;0.45;0.45;;;1.50;99.90;;;;;;6213418;23;20027;-71
2023/12/03 08:23:34;;;;;;;2.65;1.80;;;1.40;99.90;;;;;;6184468;23;20043;-71
2023/12/03 08:26:01;;;;;;;0.50;0.50;;;1.30;99.90;;;;;;6185582;23;20074;-70
2023/12/03 08:28:27;;;;;;;0.80;0.63;;;1.30;99.90;;;;;;6184377;23;20008;-70
2023/12/03 08:30:52;;;;;;;2.40;1.05;;;1.30;99.90;;;;;;6186608;23;20399;-71
2023/12/03 08:33:18;;;;;;;1.48;0.90;;;1.40;99.90;;;;;;6185349;23;20467;-70
2023/12/03 08:35:44;;;;;;;0.70;0.70;;;1.50;99.90;;;;;;6211796;23;20546;-71
2023/12/03 08:38:09;;;;;;;1.85;0.57;;;1.50;99.90;;;;;;6184364;23;20329;-71
2023/12/03 08:40:35;;;;;;;1.65;0.93;;;1.50;99.90;;;;;;6185630;23;20085;-71
2023/12/03 08:43:00;;;;;;;0.52;0.45;;;1.40;99.90;;;;;;6184060;23;20016;-71
2023/12/03 08:45:26;;;;;;;2.63;1.10;;;1.40;99.90;;;;;;6185638;23;20097;-71
2023/12/03 08:47:52;;;;;;;1.75;1.05;;;1.40;99.90;;;;;;6183892;23;20358;-70
2023/12/03 08:50:18;;;;;;;4.82;0.90;;;1.30;99.90;;;;;;6185961;23;20488;-71
2023/12/03 08:52:44;;;;;;;2.05;1.52;;;1.30;99.90;;;;;;6212220;23;20018;-71
2023/12/03 08:55:09;;;;;;;5.70;1.65;;;1.30;99.90;;;;;;6210039;23;20016;-71
2023/12/03 08:57:36;;;;;;;4.25;1.95;;;1.30;99.90;;;;;;6183330;23;20059;-71
2023/12/03 09:00:07;;;;;;;4.13;3.30;;;1.40;99.90;;;;;;6212615;23;20028;-71
2023/12/03 09:02:33;;;;;;;9.27;2.58;;;1.40;99.90;;;;;;6212105;23;20008;-71
2023/12/03 09:04:59;;;;;;;1.00;0.77;;;1.40;99.90;;;;;;6211175;23;20017;-72
2023/12/03 09:07:24;;;;;;;3.60;2.63;;;1.40;99.90;;;;;;6160782;23;20012;-71
2023/12/03 09:09:50;;;;;;;2.03;1.92;;;1.40;99.90;;;;;;6183495;23;20098;-71
2023/12/03 09:12:17;;;;;;;3.33;1.90;;;1.50;99.90;;;;;;6184375;23;20009;-71
2023/12/03 09:14:43;;;;;;;3.08;1.40;;;1.50;99.90;;;;;;6181991;23;20025;-71
2023/12/03 09:17:09;;;;;;;5.13;1.38;;;1.40;99.90;;;;;;6184985;23;20386;-72
2023/12/03 09:19:34;;;;;;;7.50;2.03;;;1.40;99.90;;;;;;6184368;23;20063;-71
2023/12/03 09:22:00;;;;;;;5.43;1.30;;;1.40;99.90;;;;;;6184252;23;20020;-72
2023/12/03 09:24:25;;;;;;;2.33;1.17;;;1.40;99.90;;;;;;6181847;23;20142;-72
2023/12/03 09:26:51;;;;;;;2.65;1.25;;;1.40;99.90;;;;;;6183675;23;20064;-71
2023/12/03 09:29:17;;;;;;;2.17;1.40;;;1.40;99.90;;;;;;6183472;23;20013;-71
2023/12/03 09:31:42;;;;;;;1.88;1.75;;;1.40;99.90;;;;;;6184670;23;20021;-72
2023/12/03 09:34:08;;;;;;;4.88;1.55;;;1.40;99.90;;;;;;6183449;23;20024;-71
2023/12/03 09:36:34;;;;;;;2.15;1.70;;;1.40;99.90;;;;;;6184862;23;20409;-73
2023/12/03 09:39:00;;;;;;;3.97;1.20;;;1.40;99.90;;;;;;6183946;23;20055;-72
2023/12/03 09:41:29;;;;;;;4.97;1.85;;;1.40;99.90;;;;;;6184657;23;20398;-73
2023/12/03 09:43:59;;;;;;;3.67;1.92;;;1.40;99.90;;;;;;6183569;23;20047;-72
2023/12/03 09:46:30;;;;;;;1.80;1.35;;;1.40;99.90;;;;;;6212488;23;20015;-73
2023/12/03 09:49:00;;;;;;;1.42;1.33;;;1.40;99.90;;;;;;6210898;23;20012;-73
2023/12/03 09:51:27;;;;;;;3.70;2.58;;;1.50;99.90;;;;;;6184180;23;20404;-72
2023/12/03 09:53:57;;;;;;;5.13;2.25;;;1.40;99.90;;;;;;6183449;23;20020;-73
2023/12/03 09:56:25;;;;;;;10.77;2.17;;;1.40;99.90;;;;;;6185136;23;20399;-73
2023/12/03 09:58:51;;;;;;;1.48;1.38;;;1.50;99.90;;;;;;6181611;23;20034;-73
2023/12/03 10:01:18;;;;;;;1.40;1.25;;;1.40;99.90;;;;;;6185459;23;20448;-72
2023/12/03 10:03:44;;;;;;;2.17;1.75;;;1.40;99.90;;;;;;6184429;23;20044;-72
2023/12/03 10:06:14;;;;;;;1.92;1.30;;;1.40;99.90;;;;;;6211109;23;20455;-72
2023/12/03 10:08:41;;;;;;;2.33;2.13;;;1.50;99.90;;;;;;6181339;23;20016;-72
2023/12/03 10:11:10;;;;;;;2.00;1.10;;;1.50;99.90;;;;;;6184596;23;20032;-72
2023/12/03 10:13:36;;;;;;;1.65;1.55;;;1.60;99.90;;;;;;6181111;23;20025;-72
2023/12/03 10:16:02;;;;;;;8.68;1.13;;;1.70;99.90;;;;;;6209583;23;20094;-72
2023/12/03 10:18:28;;;;;;;1.10;1.00;;;1.70;99.90;;;;;;6158201;23;20012;-73
2023/12/03 10:21:09;;;;;;;3.20;2.05;;;1.80;99.90;;;;;;6184441;23;20502;-73
2023/12/03 10:23:35;;;;;;;2.65;1.85;;;1.80;99.90;;;;;;6183162;23;20017;-72
2023/12/03 10:26:15;;;;;;;6.13;1.60;;;1.90;99.90;;;;;;6184223;23;20012;-72
2023/12/03 10:28:41;;;;;;;5.32;1.50;;;1.90;99.90;;;;;;6182794;23;20009;-72
2023/12/03 10:31:13;;;;;;;0.85;0.82;;;1.90;99.90;;;;;;6184634;23;20004;-72
2023/12/03 10:33:39;;;;;;;1.45;1.17;;;2.00;99.90;;;;;;6212156;23;20096;-72
2023/12/03 10:36:04;;;;;;;4.53;2.17;;;2.00;99.90;;;;;;6211771;23;20466;-72
2023/12/03 10:38:41;;;;;;;2.13;1.30;;;2.10;99.90;;;;;;6185743;23;20019;-72
2023/12/03 10:41:08;;;;;;;4.57;1.55;;;2.10;99.90;;;;;;6185487;23;20034;-72
2023/12/03 10:43:35;;;;;;;4.82;2.63;;;2.10;99.90;;;;;;6184127;23;20012;-72
2023/12/03 10:46:10;;;;;;;0.98;0.95;;;2.10;99.90;;;;;;6185933;23;20013;-71
2023/12/03 10:48:36;;;;;;;1.73;1.00;;;2.00;99.90;;;;;;6184933;23;20016;-72
2023/12/03 10:51:07;;;;;;;6.35;2.28;;;2.00;99.90;;;;;;6186413;23;20336;-72
2023/12/03 10:53:34;;;;;;;5.85;1.25;;;2.00;99.90;;;;;;6185254;23;20026;-72
2023/12/03 10:56:05;;;;;;;6.25;1.85;;;1.90;99.90;;;;;;6185199;23;20418;-72
2023/12/03 10:58:33;;;;;;;2.67;1.10;;;1.90;99.90;;;;;;6157672;23;20078;-72
2023/12/03 11:01:05;;;;;;;1.13;0.88;;;2.00;99.90;;;;;;6187373;23;20012;-72
2023/12/03 11:03:54;;;;;;;4.70;2.08;;;2.00;99.90;;;;;;6211130;23;20017;-71
2023/12/03 11:06:25;;;;;;;6.78;2.22;;;2.00;99.90;;;;;;6156444;23;20054;-71
2023/12/03 11:08:52;;;;;;;6.75;3.45;;;2.10;99.90;;;;;;6185261;23;20360;-72
2023/12/03 11:11:21;;;;;;;1.10;1.02;;;2.20;99.90;;;;;;6185942;23;20051;-72
2023/12/03 11:13:52;;;;;;;1.95;1.70;;;2.20;99.90;;;;;;6185317;23;20447;-72
2023/12/03 11:16:19;;;;;;;3.45;1.63;;;2.20;99.90;;;;;;6185686;23;20062;-72
2023/12/03 11:19:01;;;;;;;1.10;1.00;;;2.30;99.90;;;;;;6185106;23;20012;-72
2023/12/03 11:21:38;;;;;;;6.38;1.48;;;2.30;99.90;;;;;;6184777;23;20368;-71
2023/12/03 11:24:38;;;;;;;0.60;0.60;;;2.30;99.90;;;;;;6184677;23;20016;-73
2023/12/03 11:27:04;;;;;;;5.70;2.05;;;2.40;99.90;;;;;;6210505;23;20470;-72
2023/12/03 11:29:50;;;;;;;2.08;1.88;;;2.50;99.90;;;;;;6185691;23;20343;-72
2023/12/03 11:32:20;;;;;;;7.38;1.65;;;2.50;99.90;;;;;;6185708;23;20531;-72
2023/12/03 11:34:59;;;;;;;3.38;1.55;;;2.50;99.90;;;;;;6184044;23;20348;-73
2023/12/03 11:37:27;;;;;;;1.85;1.40;;;2.40;99.90;;;;;;6212429;23;20432;-72
2023/12/03 11:40:14;;;;;;;2.63;2.08;;;2.40;99.90;;;;;;6185307;23;20062;-73
2023/12/03 11:42:43;;;;;;;4.38;1.98;;;2.40;99.90;;;;;;6211909;23;20022;-72
2023/12/03 11:45:21;;;;;;;0.88;0.88;;;2.50;99.90;;;;;;6157939;23;20017;-73
2023/12/03 11:48:07;;;;;;;2.92;2.25;;;2.60;99.90;;;;;;6183410;23;20016;-72
2023/12/03 11:50:44;;;;;;;5.20;2.47;;;2.80;99.90;;;;;;6186430;23;20013;-73
2023/12/03 11:53:15;;;;;;;2.20;1.23;;;2.90;99.90;;;;;;6184672;23;20016;-72
2023/12/03 11:55:45;;;;;;;6.82;2.20;;;3.00;99.90;;;;;;6159983;23;20008;-72
2023/12/03 11:58:11;;;;;;;3.35;2.13;;;3.10;99.90;;;;;;6184157;23;20016;-72
2023/12/03 12:00:38;;;;;;;3.95;2.80;;;3.20;99.90;;;;;;6186330;23;20016;-73
2023/12/03 12:03:05;;;;;;;2.58;2.38;;;3.20;99.90;;;;;;6184138;23;20675;-72
2023/12/03 12:05:31;;;;;;;9.02;2.50;;;3.20;99.90;;;;;;6184788;23;20012;-71
2023/12/03 12:08:02;;;;;;;1.27;1.17;;;3.20;99.90;;;;;;6206335;23;20040;-71
2023/12/03 12:10:29;;;;;;;1.48;1.38;;;3.10;99.90;;;;;;6182933;23;20087;-72
2023/12/03 12:12:56;;;;;;;6.43;2.67;;;3.10;99.90;;;;;;6153768;23;20043;-71
2023/12/03 12:15:23;;;;;;;2.97;1.85;;;3.00;99.90;;;;;;6183642;23;20023;-72
2023/12/03 12:17:48;;;;;;;3.58;1.73;;;3.00;99.90;;;;;;6183135;23;20013;-72
2023/12/03 12:20:29;;;;;;;3.00;1.90;;;2.90;99.90;;;;;;6185188;23;20009;-73
2023/12/03 12:22:56;;;;;;;5.10;2.38;;;2.90;99.90;;;;;;6209271;23;20017;-71
2023/12/03 12:25:25;;;;;;;4.20;1.50;;;2.90;99.90;;;;;;6184330;23;20035;-72
2023/12/03 12:27:52;;;;;;;1.95;1.13;;;2.80;99.90;;;;;;6207846;23;20048;-72
2023/12/03 12:30:22;;;;;;;4.28;1.80;;;2.80;99.90;;;;;;6182902;23;20019;-71
2023/12/03 12:32:51;;;;;;;7.35;1.95;;;2.70;99.90;;;;;;6183292;23;20013;-71
2023/12/03 12:35:21;;;;;;;5.55;2.40;;;2.60;99.90;;;;;;6183511;23;20040;-73
2023/12/03 12:37:46;;;;;;;6.18;1.50;;;2.50;99.90;;;;;;6207666;23;20304;-74
2023/12/03 12:40:13;;;;;;;3.72;1.92;;;2.50;99.90;;;;;;6180363;23;20459;-74
2023/12/03 12:42:42;;;;;;;5.53;2.33;;;2.40;99.90;;;;;;6183713;23;20008;-74
2023/12/03 12:45:26;;;;;;;2.58;2.35;;;2.40;99.90;;;;;;6183658;23;20020;-71
2023/12/03 12:47:52;;;;;;;3.85;3.53;;;2.30;99.90;;;;;;6209601;23;20038;-70
2023/12/03 12:50:18;;;;;;;11.85;1.23;;;2.20;99.90;;;;;;6184540;23;20091;-71
2023/12/03 12:52:54;;;;;;;2.38;1.40;;;2.20;99.90;;;;;;6183783;23;20106;-71